sensor_id;sensor_type;location;lat;lon;timestamp;pressure;altitude;pressure_sealevel;temperature;humidity
72359;BME280;60317;48.880;-0.862;2022-11-15T00:01:14;99482.25;;;18.67;52.96
72359;BME280;60317;48.880;-0.862;2022-11-15T00:03:42;99466.34;;;18.65;52.90
72359;BME280;60317;48.880;-0.862;2022-11-15T00:06:09;99462.84;;;18.65;52.91
72359;BME280;60317;48.880;-0.862;2022-11-15T00:08:35;99452.97;;;18.65;52.88
72359;BME280;60317;48.880;-0.862;2022-11-15T00:11:02;99444.09;;;18.65;52.90
72359;BME280;60317;48.880;-0.862;2022-11-15T00:13:29;99437.91;;;18.64;52.85
72359;BME280;60317;48.880;-0.862;2022-11-15T00:15:56;99425.50;;;18.63;52.85
72359;BME280;60317;48.880;-0.862;2022-11-15T00:18:23;99429.00;;;18.64;52.85
72359;BME280;60317;48.880;-0.862;2022-11-15T00:20:51;99418.31;;;18.64;52.76
72359;BME280;60317;48.880;-0.862;2022-11-15T00:23:17;99410.28;;;18.64;52.71
72359;BME280;60317;48.880;-0.862;2022-11-15T00:25:43;99405.94;;;18.63;52.83
72359;BME280;60317;48.880;-0.862;2022-11-15T00:28:10;99405.94;;;18.63;52.80
72359;BME280;60317;48.880;-0.862;2022-11-15T00:30:36;99403.25;;;18.63;52.76
72359;BME280;60317;48.880;-0.862;2022-11-15T00:33:03;99408.59;;;18.63;52.85
72359;BME280;60317;48.880;-0.862;2022-11-15T00:35:30;99420.97;;;18.64;52.74
72359;BME280;60317;48.880;-0.862;2022-11-15T00:37:58;99386.34;;;18.62;52.65
72359;BME280;60317;48.880;-0.862;2022-11-15T00:40:24;99380.84;;;18.64;52.69
72359;BME280;60317;48.880;-0.862;2022-11-15T00:42:51;99381.84;;;18.63;52.71
72359;BME280;60317;48.880;-0.862;2022-11-15T00:45:17;99366.78;;;18.62;52.82
72359;BME280;60317;48.880;-0.862;2022-11-15T00:47:43;99355.06;;;18.63;52.82
72359;BME280;60317;48.880;-0.862;2022-11-15T00:50:10;99357.91;;;18.61;52.73
72359;BME280;60317;48.880;-0.862;2022-11-15T00:52:40;99347.22;;;18.61;52.77
72359;BME280;60317;48.880;-0.862;2022-11-15T00:55:09;99341.03;;;18.60;52.85
72359;BME280;60317;48.880;-0.862;2022-11-15T00:57:38;99340.03;;;18.62;52.73
72359;BME280;60317;48.880;-0.862;2022-11-15T01:00:05;99341.84;;;18.61;52.73
72359;BME280;60317;48.880;-0.862;2022-11-15T01:02:32;99333.00;;;18.60;52.77
72359;BME280;60317;48.880;-0.862;2022-11-15T01:04:58;99327.63;;;18.60;52.72
72359;BME280;60317;48.880;-0.862;2022-11-15T01:07:24;99311.59;;;18.60;52.72
72359;BME280;60317;48.880;-0.862;2022-11-15T01:09:51;99308.03;;;18.60;52.77
72359;BME280;60317;48.880;-0.862;2022-11-15T01:12:18;99302.84;;;18.58;52.67
72359;BME280;60317;48.880;-0.862;2022-11-15T01:14:45;99308.19;;;18.58;52.59
72359;BME280;60317;48.880;-0.862;2022-11-15T01:17:11;99293.16;;;18.57;52.66
72359;BME280;60317;48.880;-0.862;2022-11-15T01:19:37;99282.28;;;18.59;52.80
72359;BME280;60317;48.880;-0.862;2022-11-15T01:22:04;99274.25;;;18.59;52.59
72359;BME280;60317;48.880;-0.862;2022-11-15T01:24:30;99276.09;;;18.58;52.59
72359;BME280;60317;48.880;-0.862;2022-11-15T01:26:56;99276.09;;;18.58;52.68
72359;BME280;60317;48.880;-0.862;2022-11-15T01:29:24;99261.72;;;18.59;52.65
72359;BME280;60317;48.880;-0.862;2022-11-15T01:31:52;99262.53;;;18.60;52.57
72359;BME280;60317;48.880;-0.862;2022-11-15T01:34:18;99252.72;;;18.60;52.56
72359;BME280;60317;48.880;-0.862;2022-11-15T01:36:45;99256.34;;;18.59;52.63
72359;BME280;60317;48.880;-0.862;2022-11-15T01:39:11;99249.16;;;18.60;52.56
72359;BME280;60317;48.880;-0.862;2022-11-15T01:41:37;99242.13;;;18.59;52.52
72359;BME280;60317;48.880;-0.862;2022-11-15T01:46:41;99222.56;;;18.58;52.70
72359;BME280;60317;48.880;-0.862;2022-11-15T01:49:11;99230.59;;;18.58;52.50
72359;BME280;60317;48.880;-0.862;2022-11-15T01:51:39;99223.56;;;18.57;52.51
72359;BME280;60317;48.880;-0.862;2022-11-15T01:54:08;99220.06;;;18.57;52.62
72359;BME280;60317;48.880;-0.862;2022-11-15T01:56:37;99212.03;;;18.57;52.48
72359;BME280;60317;48.880;-0.862;2022-11-15T01:59:07;99209.50;;;18.55;52.65
72359;BME280;60317;48.880;-0.862;2022-11-15T02:01:34;99211.16;;;18.56;52.63
72359;BME280;60317;48.880;-0.862;2022-11-15T02:04:03;99204.00;;;18.57;52.65
72359;BME280;60317;48.880;-0.862;2022-11-15T02:06:31;99194.97;;;18.58;52.57
72359;BME280;60317;48.880;-0.862;2022-11-15T02:08:58;99198.66;;;18.57;52.58
72359;BME280;60317;48.880;-0.862;2022-11-15T02:11:25;99192.44;;;18.56;52.68
72359;BME280;60317;48.880;-0.862;2022-11-15T02:13:51;99186.09;;;18.57;52.55
72359;BME280;60317;48.880;-0.862;2022-11-15T02:16:20;99180.75;;;18.57;52.61
72359;BME280;60317;48.880;-0.862;2022-11-15T02:18:49;99170.88;;;18.58;52.61
72359;BME280;60317;48.880;-0.862;2022-11-15T02:21:19;99172.72;;;18.57;52.66
72359;BME280;60317;48.880;-0.862;2022-11-15T02:23:56;99179.06;;;18.56;52.69
72359;BME280;60317;48.880;-0.862;2022-11-15T02:26:31;99177.38;;;18.55;52.68
72359;BME280;60317;48.880;-0.862;2022-11-15T02:29:04;99163.00;;;18.56;52.62
72359;BME280;60317;48.880;-0.862;2022-11-15T02:31:35;99164.00;;;18.55;52.52
72359;BME280;60317;48.880;-0.862;2022-11-15T02:34:05;99172.03;;;18.55;52.68
72359;BME280;60317;48.880;-0.862;2022-11-15T02:36:36;99158.66;;;18.55;52.69
72359;BME280;60317;48.880;-0.862;2022-11-15T02:39:07;99163.00;;;18.56;52.68
72359;BME280;60317;48.880;-0.862;2022-11-15T02:41:38;99155.97;;;18.55;52.61
72359;BME280;60317;48.880;-0.862;2022-11-15T02:44:07;99144.25;;;18.56;52.59
72359;BME280;60317;48.880;-0.862;2022-11-15T02:46:38;99152.28;;;18.56;52.62
72359;BME280;60317;48.880;-0.862;2022-11-15T02:49:06;99146.28;;;18.54;52.66
72359;BME280;60317;48.880;-0.862;2022-11-15T02:51:33;99140.94;;;18.54;52.57
72359;BME280;60317;48.880;-0.862;2022-11-15T02:53:59;99139.91;;;18.55;52.55
72359;BME280;60317;48.880;-0.862;2022-11-15T02:56:25;99140.94;;;18.54;52.64
72359;BME280;60317;48.880;-0.862;2022-11-15T02:59:00;99124.69;;;18.56;52.67
72359;BME280;60317;48.880;-0.862;2022-11-15T03:01:38;99115.16;;;18.53;52.44
72359;BME280;60317;48.880;-0.862;2022-11-15T03:04:13;99116.00;;;18.54;52.63
72359;BME280;60317;48.880;-0.862;2022-11-15T03:06:46;99123.88;;;18.55;52.62
72359;BME280;60317;48.880;-0.862;2022-11-15T03:09:13;99107.16;;;18.53;52.69
72359;BME280;60317;48.880;-0.862;2022-11-15T03:11:48;99105.44;;;18.52;52.67
72359;BME280;60317;48.880;-0.862;2022-11-15T03:14:18;99101.78;;;18.53;52.76
72359;BME280;60317;48.880;-0.862;2022-11-15T03:16:49;99093.75;;;18.53;52.73
72359;BME280;60317;48.880;-0.862;2022-11-15T03:19:23;99082.06;;;18.54;52.63
72359;BME280;60317;48.880;-0.862;2022-11-15T03:21:52;99080.38;;;18.53;52.63
72359;BME280;60317;48.880;-0.862;2022-11-15T03:24:19;99083.06;;;18.53;52.63
72359;BME280;60317;48.880;-0.862;2022-11-15T03:26:51;99082.91;;;18.55;52.64
72359;BME280;60317;48.880;-0.862;2022-11-15T03:29:19;99074.88;;;18.55;52.68
72359;BME280;60317;48.880;-0.862;2022-11-15T03:31:52;99064.16;;;18.55;52.69
72359;BME280;60317;48.880;-0.862;2022-11-15T03:34:28;99057.97;;;18.54;52.67
72359;BME280;60317;48.880;-0.862;2022-11-15T03:36:55;99051.78;;;18.54;52.55
72359;BME280;60317;48.880;-0.862;2022-11-15T03:39:22;99043.59;;;18.55;52.56
72359;BME280;60317;48.880;-0.862;2022-11-15T03:41:50;99038.41;;;18.54;52.58
72359;BME280;60317;48.880;-0.862;2022-11-15T03:44:22;99035.56;;;18.55;52.67
72359;BME280;60317;48.880;-0.862;2022-11-15T03:46:53;99032.06;;;18.55;52.73
72359;BME280;60317;48.880;-0.862;2022-11-15T03:49:24;99022.19;;;18.55;52.55
72359;BME280;60317;48.880;-0.862;2022-11-15T03:51:51;99028.53;;;18.54;52.61
72359;BME280;60317;48.880;-0.862;2022-11-15T03:54:18;99026.88;;;18.53;52.67
72359;BME280;60317;48.880;-0.862;2022-11-15T03:56:44;99015.31;;;18.53;52.60
72359;BME280;60317;48.880;-0.862;2022-11-15T03:59:10;99009.13;;;18.52;52.76
72359;BME280;60317;48.880;-0.862;2022-11-15T04:01:37;99001.78;;;18.54;52.60
72359;BME280;60317;48.880;-0.862;2022-11-15T04:04:05;98995.97;;;18.59;52.72
72359;BME280;60317;48.880;-0.862;2022-11-15T04:06:31;98985.78;;;18.63;52.42
72359;BME280;60317;48.880;-0.862;2022-11-15T04:08:57;98981.78;;;18.67;52.45
72359;BME280;60317;48.880;-0.862;2022-11-15T04:11:24;98968.94;;;18.70;52.36
72359;BME280;60317;48.880;-0.862;2022-11-15T04:13:50;98956.09;;;18.74;52.41
72359;BME280;60317;48.880;-0.862;2022-11-15T04:16:16;98947.75;;;18.77;52.27
72359;BME280;60317;48.880;-0.862;2022-11-15T04:18:43;98942.94;;;18.80;52.30
72359;BME280;60317;48.880;-0.862;2022-11-15T04:21:10;98936.41;;;18.83;52.27
72359;BME280;60317;48.880;-0.862;2022-11-15T04:23:37;98930.59;;;18.88;52.11
72359;BME280;60317;48.880;-0.862;2022-11-15T04:26:04;98927.75;;;18.89;52.10
72359;BME280;60317;48.880;-0.862;2022-11-15T04:28:31;98940.81;;;18.92;52.09
72359;BME280;60317;48.880;-0.862;2022-11-15T04:30:57;98921.75;;;18.95;52.11
72359;BME280;60317;48.880;-0.862;2022-11-15T04:33:23;98928.78;;;18.96;51.94
72359;BME280;60317;48.880;-0.862;2022-11-15T04:35:50;98919.44;;;19.00;52.08
72359;BME280;60317;48.880;-0.862;2022-11-15T04:38:18;98911.22;;;19.02;52.03
72359;BME280;60317;48.880;-0.862;2022-11-15T04:40:44;98917.44;;;19.02;51.89
72359;BME280;60317;48.880;-0.862;2022-11-15T04:43:10;98912.75;;;19.04;51.95
72359;BME280;60317;48.880;-0.862;2022-11-15T04:45:37;98912.59;;;19.06;51.90
72359;BME280;60317;48.880;-0.862;2022-11-15T04:48:03;98916.78;;;19.08;51.92
72359;BME280;60317;48.880;-0.862;2022-11-15T04:50:30;98912.13;;;19.11;51.77
72359;BME280;60317;48.880;-0.862;2022-11-15T04:52:56;98906.59;;;19.12;51.92
72359;BME280;60317;48.880;-0.862;2022-11-15T04:55:24;98901.09;;;19.14;51.83
72359;BME280;60317;48.880;-0.862;2022-11-15T04:57:56;98889.34;;;19.15;51.73
72359;BME280;60317;48.880;-0.862;2022-11-15T05:00:23;98891.03;;;19.16;51.79
72359;BME280;60317;48.880;-0.862;2022-11-15T05:02:49;98886.34;;;19.18;51.78
72359;BME280;60317;48.880;-0.862;2022-11-15T05:05:15;98875.47;;;19.19;51.74
72359;BME280;60317;48.880;-0.862;2022-11-15T05:07:42;98875.31;;;19.21;51.75
72359;BME280;60317;48.880;-0.862;2022-11-15T05:10:08;98870.63;;;19.23;51.71
72359;BME280;60317;48.880;-0.862;2022-11-15T05:12:36;98857.09;;;19.24;51.72
72359;BME280;60317;48.880;-0.862;2022-11-15T05:15:02;98847.03;;;19.26;51.72
72359;BME280;60317;48.880;-0.862;2022-11-15T05:17:29;98846.03;;;19.27;51.66
72359;BME280;60317;48.880;-0.862;2022-11-15T05:19:55;98843.38;;;19.27;51.72
72359;BME280;60317;48.880;-0.862;2022-11-15T05:22:21;98852.06;;;19.29;51.69
72359;BME280;60317;48.880;-0.862;2022-11-15T05:24:48;98844.72;;;19.31;51.73
72359;BME280;60317;48.880;-0.862;2022-11-15T05:27:14;98845.38;;;19.34;51.57
72359;BME280;60317;48.880;-0.862;2022-11-15T05:29:42;98847.91;;;19.35;51.60
72359;BME280;60317;48.880;-0.862;2022-11-15T05:32:09;98837.19;;;19.35;51.54
72359;BME280;60317;48.880;-0.862;2022-11-15T05:34:35;98839.69;;;19.37;51.64
72359;BME280;60317;48.880;-0.862;2022-11-15T05:37:01;98823.47;;;19.38;51.59
72359;BME280;60317;48.880;-0.862;2022-11-15T05:39:29;98806.38;;;19.39;51.61
72359;BME280;60317;48.880;-0.862;2022-11-15T05:41:56;98798.34;;;19.39;51.64
72359;BME280;60317;48.880;-0.862;2022-11-15T05:44:23;98791.13;;;19.40;51.64
72359;BME280;60317;48.880;-0.862;2022-11-15T05:46:52;98798.00;;;19.42;51.52
72359;BME280;60317;48.880;-0.862;2022-11-15T05:49:19;98789.97;;;19.42;51.60
72359;BME280;60317;48.880;-0.862;2022-11-15T05:51:47;98789.78;;;19.44;51.62
72359;BME280;60317;48.880;-0.862;2022-11-15T05:54:14;98798.66;;;19.44;51.54
72359;BME280;60317;48.880;-0.862;2022-11-15T05:56:41;98777.91;;;19.46;51.62
72359;BME280;60317;48.880;-0.862;2022-11-15T05:59:08;98802.69;;;19.40;51.83
72359;BME280;60317;48.880;-0.862;2022-11-15T06:01:35;98798.16;;;19.33;52.58
72359;BME280;60317;48.880;-0.862;2022-11-15T06:04:03;98788.28;;;19.33;52.42
72359;BME280;60317;48.880;-0.862;2022-11-15T06:06:29;98778.56;;;19.32;52.38
72359;BME280;60317;48.880;-0.862;2022-11-15T06:08:55;98777.38;;;19.26;52.42
72359;BME280;60317;48.880;-0.862;2022-11-15T06:11:22;98780.38;;;19.23;52.67
72359;BME280;60317;48.880;-0.862;2022-11-15T06:13:48;98784.91;;;19.23;53.22
72359;BME280;60317;48.880;-0.862;2022-11-15T06:16:15;98774.03;;;19.16;54.94
72359;BME280;60317;48.880;-0.862;2022-11-15T06:18:41;98774.53;;;19.12;54.74
72359;BME280;60317;48.880;-0.862;2022-11-15T06:21:09;98780.06;;;19.10;54.69
72359;BME280;60317;48.880;-0.862;2022-11-15T06:23:35;98785.56;;;19.08;55.06
72359;BME280;60317;48.880;-0.862;2022-11-15T06:26:02;98779.75;;;19.13;54.55
72359;BME280;60317;48.880;-0.862;2022-11-15T06:28:29;98764.69;;;19.20;54.26
72359;BME280;60317;48.880;-0.862;2022-11-15T06:30:56;98758.81;;;19.25;54.14
72359;BME280;60317;48.880;-0.862;2022-11-15T06:33:22;98770.53;;;19.32;53.83
72359;BME280;60317;48.880;-0.862;2022-11-15T06:35:49;98761.50;;;19.33;53.66
72359;BME280;60317;48.880;-0.862;2022-11-15T06:38:17;98756.81;;;19.35;53.64
72359;BME280;60317;48.880;-0.862;2022-11-15T06:40:43;98762.66;;;19.39;53.50
72359;BME280;60317;48.880;-0.862;2022-11-15T06:43:09;98755.47;;;19.39;53.38
72359;BME280;60317;48.880;-0.862;2022-11-15T06:45:36;98755.28;;;19.41;53.37
72359;BME280;60317;48.880;-0.862;2022-11-15T06:48:02;98756.97;;;19.42;53.24
72359;BME280;60317;48.880;-0.862;2022-11-15T06:50:29;98748.75;;;19.43;53.07
72359;BME280;60317;48.880;-0.862;2022-11-15T06:52:55;98760.16;;;19.45;53.14
72359;BME280;60317;48.880;-0.862;2022-11-15T06:55:27;98774.41;;;19.46;53.06
72359;BME280;60317;48.880;-0.862;2022-11-15T06:57:53;98764.50;;;19.46;53.09
72359;BME280;60317;48.880;-0.862;2022-11-15T07:00:20;98760.66;;;19.49;52.85
72359;BME280;60317;48.880;-0.862;2022-11-15T07:02:47;98761.50;;;19.49;52.99
72359;BME280;60317;48.880;-0.862;2022-11-15T07:05:14;98751.59;;;19.50;52.84
72359;BME280;60317;48.880;-0.862;2022-11-15T07:07:41;98739.03;;;19.50;52.84
72359;BME280;60317;48.880;-0.862;2022-11-15T07:10:08;98750.59;;;19.51;52.88
72359;BME280;60317;48.880;-0.862;2022-11-15T07:12:37;98750.25;;;19.54;52.74
72359;BME280;60317;48.880;-0.862;2022-11-15T07:15:03;98743.75;;;19.57;52.66
72359;BME280;60317;48.880;-0.862;2022-11-15T07:17:30;98748.47;;;19.63;52.60
72359;BME280;60317;48.880;-0.862;2022-11-15T07:19:57;98743.59;;;19.66;52.74
72359;BME280;60317;48.880;-0.862;2022-11-15T07:22:23;98741.56;;;19.68;52.77
72359;BME280;60317;48.880;-0.862;2022-11-15T07:24:49;98740.41;;;19.71;52.72
72359;BME280;60317;48.880;-0.862;2022-11-15T07:27:16;98743.06;;;19.71;53.00
72359;BME280;60317;48.880;-0.862;2022-11-15T07:29:44;98732.16;;;19.72;53.01
72359;BME280;60317;48.880;-0.862;2022-11-15T07:32:10;98729.84;;;19.77;53.04
72359;BME280;60317;48.880;-0.862;2022-11-15T07:34:36;98721.28;;;19.82;53.01
72359;BME280;60317;48.880;-0.862;2022-11-15T07:37:03;98726.28;;;19.85;52.83
72359;BME280;60317;48.880;-0.862;2022-11-15T07:39:29;98727.97;;;19.86;52.93
72359;BME280;60317;48.880;-0.862;2022-11-15T07:41:56;98721.28;;;19.90;52.93
72359;BME280;60317;48.880;-0.862;2022-11-15T07:44:22;98723.94;;;19.90;53.17
72359;BME280;60317;48.880;-0.862;2022-11-15T07:46:49;98725.63;;;19.91;53.04
72359;BME280;60317;48.880;-0.862;2022-11-15T07:49:16;98716.56;;;19.92;53.05
72359;BME280;60317;48.880;-0.862;2022-11-15T07:51:42;98725.28;;;19.94;52.82
72359;BME280;60317;48.880;-0.862;2022-11-15T07:54:10;98721.75;;;19.94;52.76
72359;BME280;60317;48.880;-0.862;2022-11-15T07:56:36;98714.53;;;19.94;52.75
72359;BME280;60317;48.880;-0.862;2022-11-15T07:59:02;98725.28;;;19.94;52.70
72359;BME280;60317;48.880;-0.862;2022-11-15T08:01:29;98723.25;;;19.96;52.64
72359;BME280;60317;48.880;-0.862;2022-11-15T08:03:57;98724.06;;;19.97;52.63
72359;BME280;60317;48.880;-0.862;2022-11-15T08:06:23;98718.56;;;19.98;52.49
72359;BME280;60317;48.880;-0.862;2022-11-15T08:08:49;98716.38;;;20.02;52.56
72359;BME280;60317;48.880;-0.862;2022-11-15T08:11:16;98711.00;;;20.02;52.38
72359;BME280;60317;48.880;-0.862;2022-11-15T08:13:42;98710.16;;;20.01;52.25
72359;BME280;60317;48.880;-0.862;2022-11-15T08:16:08;98708.13;;;20.03;52.39
72359;BME280;60317;48.880;-0.862;2022-11-15T08:18:35;98702.94;;;20.02;52.38
72359;BME280;60317;48.880;-0.862;2022-11-15T08:21:02;98704.81;;;20.01;52.41
72359;BME280;60317;48.880;-0.862;2022-11-15T08:23:29;98679.31;;;20.06;52.51
72359;BME280;60317;48.880;-0.862;2022-11-15T08:26:00;98684.66;;;20.06;52.15
72359;BME280;60317;48.880;-0.862;2022-11-15T08:28:27;98684.31;;;20.09;52.09
72359;BME280;60317;48.880;-0.862;2022-11-15T08:30:53;98681.66;;;20.09;52.20
72359;BME280;60317;48.880;-0.862;2022-11-15T08:33:19;98681.47;;;20.10;52.15
72359;BME280;60317;48.880;-0.862;2022-11-15T08:35:46;98671.56;;;20.11;52.07
72359;BME280;60317;48.880;-0.862;2022-11-15T08:38:14;98662.53;;;20.12;52.07
72359;BME280;60317;48.880;-0.862;2022-11-15T08:40:40;98672.91;;;20.15;52.01
72359;BME280;60317;48.880;-0.862;2022-11-15T08:43:07;98650.59;;;20.14;51.85
72359;BME280;60317;48.880;-0.862;2022-11-15T08:45:33;98652.28;;;20.15;51.79
72359;BME280;60317;48.880;-0.862;2022-11-15T08:48:00;98649.59;;;20.15;51.90
72359;BME280;60317;48.880;-0.862;2022-11-15T08:50:27;98644.88;;;20.17;52.19
72359;BME280;60317;48.880;-0.862;2022-11-15T08:52:53;98636.19;;;20.15;52.27
72359;BME280;60317;48.880;-0.862;2022-11-15T08:55:21;98632.69;;;20.15;52.58
72359;BME280;60317;48.880;-0.862;2022-11-15T08:57:50;98615.91;;;20.13;52.70
72359;BME280;60317;48.880;-0.862;2022-11-15T09:00:16;98622.81;;;20.07;52.95
72359;BME280;60317;48.880;-0.862;2022-11-15T09:02:43;98596.88;;;19.99;53.10
72359;BME280;60317;48.880;-0.862;2022-11-15T09:05:09;98612.66;;;19.94;53.15
72359;BME280;60317;48.880;-0.862;2022-11-15T09:07:36;98601.25;;;19.92;53.10
72359;BME280;60317;48.880;-0.862;2022-11-15T09:10:02;98607.66;;;19.91;53.21
72359;BME280;60317;48.880;-0.862;2022-11-15T09:12:30;98599.94;;;19.88;53.28
72359;BME280;60317;48.880;-0.862;2022-11-15T09:14:56;98610.66;;;19.88;53.46
72359;BME280;60317;48.880;-0.862;2022-11-15T09:17:23;98606.47;;;19.86;53.62
72359;BME280;60317;48.880;-0.862;2022-11-15T09:19:50;98626.06;;;19.86;53.87
72359;BME280;60317;48.880;-0.862;2022-11-15T09:22:16;98612.03;;;19.84;54.04
72359;BME280;60317;48.880;-0.862;2022-11-15T09:24:43;98609.34;;;19.84;54.36
72359;BME280;60317;48.880;-0.862;2022-11-15T09:27:09;98614.88;;;19.83;54.43
72359;BME280;60317;48.880;-0.862;2022-11-15T09:29:37;98611.84;;;19.86;54.70
72359;BME280;60317;48.880;-0.862;2022-11-15T09:32:04;98610.00;;;19.86;55.30
72359;BME280;60317;48.880;-0.862;2022-11-15T09:34:30;98605.50;;;19.87;55.34
72359;BME280;60317;48.880;-0.862;2022-11-15T09:36:56;98595.28;;;19.82;55.05
72359;BME280;60317;48.880;-0.862;2022-11-15T09:39:23;98606.22;;;20.03;54.67
72359;BME280;60317;48.880;-0.862;2022-11-15T09:41:55;98599.06;;;20.27;54.62
72359;BME280;60317;48.880;-0.862;2022-11-15T09:44:29;98614.41;;;20.41;54.18
72359;BME280;60317;48.880;-0.862;2022-11-15T09:47:03;98611.06;;;20.39;54.01
72359;BME280;60317;48.880;-0.862;2022-11-15T09:49:33;98601.63;;;20.52;54.43
72359;BME280;60317;48.880;-0.862;2022-11-15T09:51:59;98588.88;;;20.45;54.37
72359;BME280;60317;48.880;-0.862;2022-11-15T09:54:27;98591.41;;;20.47;55.13
72359;BME280;60317;48.880;-0.862;2022-11-15T09:57:15;98591.06;;;20.50;54.73
72359;BME280;60317;48.880;-0.862;2022-11-15T09:59:46;98585.50;;;20.52;54.47
72359;BME280;60317;48.880;-0.862;2022-11-15T10:02:20;98587.38;;;20.51;54.74
72359;BME280;60317;48.880;-0.862;2022-11-15T10:04:49;98581.66;;;20.54;54.77
72359;BME280;60317;48.880;-0.862;2022-11-15T10:07:18;98582.13;;;20.58;54.66
72359;BME280;60317;48.880;-0.862;2022-11-15T10:09:47;98574.78;;;20.52;54.58
72359;BME280;60317;48.880;-0.862;2022-11-15T10:12:15;98568.06;;;20.47;54.55
72359;BME280;60317;48.880;-0.862;2022-11-15T10:14:41;98571.59;;;20.48;54.24
72359;BME280;60317;48.880;-0.862;2022-11-15T10:17:13;98567.88;;;20.49;54.32
72359;BME280;60317;48.880;-0.862;2022-11-15T10:19:50;98580.47;;;20.48;54.45
72359;BME280;60317;48.880;-0.862;2022-11-15T10:22:25;98568.72;;;20.49;54.16
72359;BME280;60317;48.880;-0.862;2022-11-15T10:24:52;98571.34;;;20.35;54.72
72359;BME280;60317;48.880;-0.862;2022-11-15T10:27:24;98560.00;;;20.24;55.05
72359;BME280;60317;48.880;-0.862;2022-11-15T10:29:51;98567.28;;;20.16;55.21
72359;BME280;60317;48.880;-0.862;2022-11-15T10:32:18;98572.03;;;20.06;55.22
72359;BME280;60317;48.880;-0.862;2022-11-15T10:34:45;98569.72;;;20.02;55.48
72359;BME280;60317;48.880;-0.862;2022-11-15T10:37:13;98563.66;;;20.00;55.63
72359;BME280;60317;48.880;-0.862;2022-11-15T10:39:39;98564.00;;;20.06;55.43
72359;BME280;60317;48.880;-0.862;2022-11-15T10:44:43;98548.28;;;20.25;55.25
72359;BME280;60317;48.880;-0.862;2022-11-15T10:47:21;98566.16;;;20.33;54.89
72359;BME280;60317;48.880;-0.862;2022-11-15T10:49:53;98556.75;;;20.37;54.67
72359;BME280;60317;48.880;-0.862;2022-11-15T10:52:21;98559.22;;;20.39;54.64
72359;BME280;60317;48.880;-0.862;2022-11-15T10:54:48;98555.72;;;20.38;54.53
72359;BME280;60317;48.880;-0.862;2022-11-15T10:57:17;98549.53;;;20.38;54.45
72359;BME280;60317;48.880;-0.862;2022-11-15T10:59:46;98541.47;;;20.38;54.49
72359;BME280;60317;48.880;-0.862;2022-11-15T11:04:49;98538.63;;;20.39;54.29
72359;BME280;60317;48.880;-0.862;2022-11-15T11:07:19;98535.09;;;20.39;54.35
72359;BME280;60317;48.880;-0.862;2022-11-15T11:09:49;98531.56;;;20.38;54.29
72359;BME280;60317;48.880;-0.862;2022-11-15T11:12:26;98521.66;;;20.39;54.26
72359;BME280;60317;48.880;-0.862;2022-11-15T11:14:53;98517.16;;;20.39;54.28
72359;BME280;60317;48.880;-0.862;2022-11-15T11:17:21;98515.13;;;20.41;54.00
72359;BME280;60317;48.880;-0.862;2022-11-15T11:19:52;98517.16;;;20.39;54.12
72359;BME280;60317;48.880;-0.862;2022-11-15T11:22:23;98509.94;;;20.40;54.03
72359;BME280;60317;48.880;-0.862;2022-11-15T11:24:56;98509.28;;;20.38;54.06
72359;BME280;60317;48.880;-0.862;2022-11-15T11:27:29;98501.22;;;20.38;54.06
72359;BME280;60317;48.880;-0.862;2022-11-15T11:30:03;98492.34;;;20.37;54.05
72359;BME280;60317;48.880;-0.862;2022-11-15T11:32:42;98485.13;;;20.38;54.09
72359;BME280;60317;48.880;-0.862;2022-11-15T11:35:22;98486.78;;;20.39;53.98
72359;BME280;60317;48.880;-0.862;2022-11-15T11:37:50;98474.75;;;20.35;54.41
72359;BME280;60317;48.880;-0.862;2022-11-15T11:40:24;98481.38;;;20.24;55.09
72359;BME280;60317;48.880;-0.862;2022-11-15T11:42:55;98475.25;;;20.15;55.79
72359;BME280;60317;48.880;-0.862;2022-11-15T11:45:23;98488.19;;;20.12;55.90
72359;BME280;60317;48.880;-0.862;2022-11-15T11:47:55;98488.91;;;20.06;56.09
72359;BME280;60317;48.880;-0.862;2022-11-15T11:50:25;98488.25;;;20.03;56.22
72359;BME280;60317;48.880;-0.862;2022-11-15T11:52:55;98484.91;;;20.01;56.31
72359;BME280;60317;48.880;-0.862;2022-11-15T11:55:31;98488.09;;;19.97;56.67
72359;BME280;60317;48.880;-0.862;2022-11-15T11:58:03;98481.09;;;19.96;56.99
72359;BME280;60317;48.880;-0.862;2022-11-15T12:00:31;98479.06;;;19.98;56.88
72359;BME280;60317;48.880;-0.862;2022-11-15T12:03:02;98472.50;;;20.00;56.85
72359;BME280;60317;48.880;-0.862;2022-11-15T12:05:31;98471.03;;;19.98;57.17
72359;BME280;60317;48.880;-0.862;2022-11-15T12:08:01;98472.47;;;20.09;56.78
72359;BME280;60317;48.880;-0.862;2022-11-15T12:10:32;98471.09;;;20.13;56.95
72359;BME280;60317;48.880;-0.862;2022-11-15T12:13:00;98469.59;;;20.10;57.44
72359;BME280;60317;48.880;-0.862;2022-11-15T12:15:29;98469.44;;;20.12;57.60
72359;BME280;60317;48.880;-0.862;2022-11-15T12:17:57;98458.09;;;20.01;57.88
72359;BME280;60317;48.880;-0.862;2022-11-15T12:20:26;98459.28;;;19.99;57.95
72359;BME280;60317;48.880;-0.862;2022-11-15T12:22:54;98454.75;;;19.99;58.06
72359;BME280;60317;48.880;-0.862;2022-11-15T12:25:23;98459.09;;;20.00;57.82
72359;BME280;60317;48.880;-0.862;2022-11-15T12:27:53;98461.06;;;20.07;58.48
72359;BME280;60317;48.880;-0.862;2022-11-15T12:30:22;98440.88;;;20.19;58.40
72359;BME280;60317;48.880;-0.862;2022-11-15T12:32:51;98448.31;;;20.09;58.35
72359;BME280;60317;48.880;-0.862;2022-11-15T12:35:23;98447.84;;;20.05;58.45
72359;BME280;60317;48.880;-0.862;2022-11-15T12:37:50;98446.91;;;19.98;58.96
72359;BME280;60317;48.880;-0.862;2022-11-15T12:40:18;98440.72;;;19.97;58.88
72359;BME280;60317;48.880;-0.862;2022-11-15T12:42:58;98434.00;;;19.93;58.80
72359;BME280;60317;48.880;-0.862;2022-11-15T12:45:26;98444.03;;;19.99;58.68
72359;BME280;60317;48.880;-0.862;2022-11-15T12:47:53;98430.94;;;20.05;58.44
72359;BME280;60317;48.880;-0.862;2022-11-15T12:55:41;98420.69;;;19.85;58.86
72359;BME280;60317;48.880;-0.862;2022-11-15T13:00:45;98412.22;;;19.96;59.17
72359;BME280;60317;48.880;-0.862;2022-11-15T13:03:18;98410.53;;;19.95;59.08
72359;BME280;60317;48.880;-0.862;2022-11-15T13:05:52;98406.38;;;19.93;59.14
72359;BME280;60317;48.880;-0.862;2022-11-15T13:11:08;98407.03;;;19.95;59.10
72359;BME280;60317;48.880;-0.862;2022-11-15T13:13:55;98402.31;;;19.97;59.24